sensor_id;sensor_type;location;lat;lon;timestamp;P1;durP1;ratioP1;P2;durP2;ratioP2
52744;SDS011;38637;49.984;20.426;2024-03-22T00:02:15;68.83;;;39.80;;
52744;SDS011;38637;49.984;20.426;2024-03-22T00:04:40;65.07;;;40.63;;
52744;SDS011;38637;49.984;20.426;2024-03-22T00:07:05;65.50;;;36.43;;
52744;SDS011;38637;49.984;20.426;2024-03-22T00:09:31;56.50;;;39.50;;
52744;SDS011;38637;49.984;20.426;2024-03-22T00:11:56;60.73;;;38.70;;
52744;SDS011;38637;49.984;20.426;2024-03-22T00:14:21;52.63;;;33.23;;
52744;SDS011;38637;49.984;20.426;2024-03-22T00:16:47;50.20;;;33.67;;
52744;SDS011;38637;49.984;20.426;2024-03-22T00:19:12;47.97;;;31.80;;
52744;SDS011;38637;49.984;20.426;2024-03-22T00:21:37;43.27;;;30.20;;
52744;SDS011;38637;49.984;20.426;2024-03-22T00:24:03;43.53;;;29.67;;
52744;SDS011;38637;49.984;20.426;2024-03-22T00:26:28;43.87;;;27.83;;
52744;SDS011;38637;49.984;20.426;2024-03-22T00:28:54;41.73;;;28.40;;
52744;SDS011;38637;49.984;20.426;2024-03-22T00:31:19;42.10;;;26.53;;
52744;SDS011;38637;49.984;20.426;2024-03-22T00:33:44;50.83;;;28.10;;
52744;SDS011;38637;49.984;20.426;2024-03-22T00:36:10;39.53;;;26.27;;
52744;SDS011;38637;49.984;20.426;2024-03-22T00:38:36;38.10;;;25.63;;
52744;SDS011;38637;49.984;20.426;2024-03-22T00:41:01;37.93;;;25.80;;
52744;SDS011;38637;49.984;20.426;2024-03-22T00:43:26;37.77;;;24.50;;
52744;SDS011;38637;49.984;20.426;2024-03-22T00:45:52;37.23;;;24.93;;
52744;SDS011;38637;49.984;20.426;2024-03-22T00:48:17;35.63;;;23.63;;
52744;SDS011;38637;49.984;20.426;2024-03-22T00:50:43;37.00;;;23.60;;
52744;SDS011;38637;49.984;20.426;2024-03-22T00:53:08;42.47;;;23.30;;
52744;SDS011;38637;49.984;20.426;2024-03-22T00:55:35;39.53;;;26.65;;
52744;SDS011;38637;49.984;20.426;2024-03-22T00:58:00;38.87;;;24.23;;
52744;SDS011;38637;49.984;20.426;2024-03-22T01:00:26;39.43;;;24.77;;
52744;SDS011;38637;49.984;20.426;2024-03-22T01:02:51;36.87;;;24.50;;
52744;SDS011;38637;49.984;20.426;2024-03-22T01:05:17;34.67;;;23.83;;
52744;SDS011;38637;49.984;20.426;2024-03-22T01:07:42;41.67;;;24.33;;
52744;SDS011;38637;49.984;20.426;2024-03-22T01:10:08;37.60;;;25.00;;
52744;SDS011;38637;49.984;20.426;2024-03-22T01:12:34;34.17;;;23.70;;
52744;SDS011;38637;49.984;20.426;2024-03-22T01:14:59;39.70;;;24.50;;
52744;SDS011;38637;49.984;20.426;2024-03-22T01:17:24;37.00;;;25.87;;
52744;SDS011;38637;49.984;20.426;2024-03-22T01:19:50;42.57;;;25.90;;
52744;SDS011;38637;49.984;20.426;2024-03-22T01:22:17;38.47;;;25.15;;
52744;SDS011;38637;49.984;20.426;2024-03-22T01:24:42;33.08;;;24.08;;
52744;SDS011;38637;49.984;20.426;2024-03-22T01:27:08;34.93;;;24.50;;
52744;SDS011;38637;49.984;20.426;2024-03-22T01:29:33;36.37;;;25.77;;
52744;SDS011;38637;49.984;20.426;2024-03-22T01:31:59;41.10;;;26.67;;
52744;SDS011;38637;49.984;20.426;2024-03-22T01:34:24;41.03;;;26.37;;
52744;SDS011;38637;49.984;20.426;2024-03-22T01:36:50;34.97;;;25.27;;
52744;SDS011;38637;49.984;20.426;2024-03-22T01:39:16;38.67;;;26.17;;
52744;SDS011;38637;49.984;20.426;2024-03-22T01:41:42;39.73;;;26.90;;
52744;SDS011;38637;49.984;20.426;2024-03-22T01:44:08;39.20;;;27.20;;
52744;SDS011;38637;49.984;20.426;2024-03-22T01:46:34;41.03;;;25.53;;
52744;SDS011;38637;49.984;20.426;2024-03-22T01:49:00;49.08;;;26.92;;
52744;SDS011;38637;49.984;20.426;2024-03-22T01:51:25;39.93;;;27.17;;
52744;SDS011;38637;49.984;20.426;2024-03-22T01:53:51;43.57;;;27.23;;
52744;SDS011;38637;49.984;20.426;2024-03-22T01:56:18;40.58;;;28.50;;
52744;SDS011;38637;49.984;20.426;2024-03-22T01:58:44;42.27;;;28.57;;
52744;SDS011;38637;49.984;20.426;2024-03-22T02:01:10;40.47;;;28.35;;
52744;SDS011;38637;49.984;20.426;2024-03-22T02:03:35;37.10;;;26.87;;
52744;SDS011;38637;49.984;20.426;2024-03-22T02:06:01;41.67;;;29.00;;
52744;SDS011;38637;49.984;20.426;2024-03-22T02:08:26;40.60;;;27.17;;
52744;SDS011;38637;49.984;20.426;2024-03-22T02:10:51;40.03;;;28.23;;
52744;SDS011;38637;49.984;20.426;2024-03-22T02:13:17;41.75;;;28.25;;
52744;SDS011;38637;49.984;20.426;2024-03-22T02:15:43;42.37;;;25.40;;
52744;SDS011;38637;49.984;20.426;2024-03-22T02:18:08;34.70;;;25.63;;
52744;SDS011;38637;49.984;20.426;2024-03-22T02:20:34;45.42;;;28.98;;
52744;SDS011;38637;49.984;20.426;2024-03-22T02:23:00;37.77;;;25.57;;
52744;SDS011;38637;49.984;20.426;2024-03-22T02:25:25;40.27;;;27.20;;
52744;SDS011;38637;49.984;20.426;2024-03-22T02:27:51;38.90;;;28.23;;
52744;SDS011;38637;49.984;20.426;2024-03-22T02:30:16;37.77;;;27.23;;
52744;SDS011;38637;49.984;20.426;2024-03-22T02:32:42;38.08;;;25.88;;
52744;SDS011;38637;49.984;20.426;2024-03-22T02:35:07;39.80;;;28.10;;
52744;SDS011;38637;49.984;20.426;2024-03-22T02:37:33;39.57;;;26.97;;
52744;SDS011;38637;49.984;20.426;2024-03-22T02:39:58;40.47;;;27.47;;
52744;SDS011;38637;49.984;20.426;2024-03-22T02:42:24;40.07;;;27.90;;
52744;SDS011;38637;49.984;20.426;2024-03-22T02:44:49;42.53;;;26.53;;
52744;SDS011;38637;49.984;20.426;2024-03-22T02:47:14;39.37;;;27.63;;
52744;SDS011;38637;49.984;20.426;2024-03-22T02:49:40;42.05;;;27.70;;
52744;SDS011;38637;49.984;20.426;2024-03-22T02:52:06;38.50;;;28.80;;
52744;SDS011;38637;49.984;20.426;2024-03-22T02:54:31;38.87;;;27.37;;
52744;SDS011;38637;49.984;20.426;2024-03-22T02:56:57;46.90;;;28.10;;
52744;SDS011;38637;49.984;20.426;2024-03-22T02:59:25;40.53;;;28.00;;
52744;SDS011;38637;49.984;20.426;2024-03-22T03:01:51;44.47;;;29.10;;
52744;SDS011;38637;49.984;20.426;2024-03-22T03:04:16;40.27;;;29.40;;
52744;SDS011;38637;49.984;20.426;2024-03-22T03:06:42;36.27;;;26.70;;
52744;SDS011;38637;49.984;20.426;2024-03-22T03:09:07;44.27;;;30.43;;
52744;SDS011;38637;49.984;20.426;2024-03-22T03:11:33;41.90;;;29.63;;
52744;SDS011;38637;49.984;20.426;2024-03-22T03:13:58;44.47;;;31.90;;
52744;SDS011;38637;49.984;20.426;2024-03-22T03:16:24;43.97;;;31.93;;
52744;SDS011;38637;49.984;20.426;2024-03-22T03:18:49;42.50;;;30.70;;
52744;SDS011;38637;49.984;20.426;2024-03-22T03:21:14;46.83;;;32.57;;
52744;SDS011;38637;49.984;20.426;2024-03-22T03:23:40;41.60;;;30.37;;
52744;SDS011;38637;49.984;20.426;2024-03-22T03:26:05;44.97;;;29.20;;
52744;SDS011;38637;49.984;20.426;2024-03-22T03:28:30;44.20;;;29.87;;
52744;SDS011;38637;49.984;20.426;2024-03-22T03:30:55;42.93;;;29.23;;
52744;SDS011;38637;49.984;20.426;2024-03-22T03:33:21;39.23;;;29.33;;
52744;SDS011;38637;49.984;20.426;2024-03-22T03:35:46;45.80;;;28.70;;
52744;SDS011;38637;49.984;20.426;2024-03-22T03:38:12;44.03;;;31.27;;
52744;SDS011;38637;49.984;20.426;2024-03-22T03:40:37;41.73;;;29.60;;
52744;SDS011;38637;49.984;20.426;2024-03-22T03:43:03;43.27;;;31.53;;
52744;SDS011;38637;49.984;20.426;2024-03-22T03:45:28;42.70;;;30.03;;
52744;SDS011;38637;49.984;20.426;2024-03-22T03:47:53;43.37;;;31.00;;
52744;SDS011;38637;49.984;20.426;2024-03-22T03:50:19;41.40;;;29.10;;
52744;SDS011;38637;49.984;20.426;2024-03-22T03:52:44;44.80;;;31.90;;
52744;SDS011;38637;49.984;20.426;2024-03-22T03:55:09;47.93;;;32.57;;
52744;SDS011;38637;49.984;20.426;2024-03-22T03:57:35;41.63;;;31.17;;
52744;SDS011;38637;49.984;20.426;2024-03-22T04:00:00;42.30;;;30.27;;
52744;SDS011;38637;49.984;20.426;2024-03-22T04:02:25;46.20;;;30.50;;
52744;SDS011;38637;49.984;20.426;2024-03-22T04:04:53;51.20;;;30.53;;
52744;SDS011;38637;49.984;20.426;2024-03-22T04:07:22;43.95;;;29.75;;
52744;SDS011;38637;49.984;20.426;2024-03-22T04:09:47;40.08;;;30.17;;
52744;SDS011;38637;49.984;20.426;2024-03-22T04:12:12;45.73;;;29.73;;
52744;SDS011;38637;49.984;20.426;2024-03-22T04:14:38;46.30;;;30.90;;
52744;SDS011;38637;49.984;20.426;2024-03-22T04:17:03;35.80;;;27.73;;
52744;SDS011;38637;49.984;20.426;2024-03-22T04:19:29;46.43;;;30.53;;
52744;SDS011;38637;49.984;20.426;2024-03-22T04:21:54;47.73;;;29.37;;
52744;SDS011;38637;49.984;20.426;2024-03-22T04:24:19;40.47;;;29.90;;
52744;SDS011;38637;49.984;20.426;2024-03-22T04:26:45;42.03;;;29.17;;
52744;SDS011;38637;49.984;20.426;2024-03-22T04:29:10;43.47;;;30.53;;
52744;SDS011;38637;49.984;20.426;2024-03-22T04:31:35;42.13;;;28.17;;
52744;SDS011;38637;49.984;20.426;2024-03-22T04:34:01;50.30;;;30.17;;
52744;SDS011;38637;49.984;20.426;2024-03-22T04:36:27;45.38;;;31.02;;
52744;SDS011;38637;49.984;20.426;2024-03-22T04:38:52;40.90;;;30.63;;
52744;SDS011;38637;49.984;20.426;2024-03-22T04:41:18;42.93;;;31.03;;
52744;SDS011;38637;49.984;20.426;2024-03-22T04:43:43;40.27;;;29.43;;
52744;SDS011;38637;49.984;20.426;2024-03-22T04:46:08;40.73;;;29.13;;
52744;SDS011;38637;49.984;20.426;2024-03-22T04:48:34;43.33;;;30.60;;
52744;SDS011;38637;49.984;20.426;2024-03-22T04:50:59;49.87;;;29.73;;
52744;SDS011;38637;49.984;20.426;2024-03-22T04:53:24;47.50;;;32.60;;
52744;SDS011;38637;49.984;20.426;2024-03-22T04:55:50;48.47;;;31.43;;
52744;SDS011;38637;49.984;20.426;2024-03-22T04:58:19;44.63;;;31.17;;
52744;SDS011;38637;49.984;20.426;2024-03-22T05:00:46;50.40;;;33.28;;
52744;SDS011;38637;49.984;20.426;2024-03-22T05:03:13;46.85;;;32.20;;
52744;SDS011;38637;49.984;20.426;2024-03-22T05:05:40;53.58;;;32.88;;
52744;SDS011;38637;49.984;20.426;2024-03-22T05:08:06;41.95;;;32.58;;
52744;SDS011;38637;49.984;20.426;2024-03-22T05:10:32;48.78;;;32.67;;
52744;SDS011;38637;49.984;20.426;2024-03-22T05:12:58;54.00;;;34.33;;
52744;SDS011;38637;49.984;20.426;2024-03-22T05:15:24;73.83;;;44.03;;
52744;SDS011;38637;49.984;20.426;2024-03-22T05:17:53;67.97;;;42.58;;
52744;SDS011;38637;49.984;20.426;2024-03-22T05:20:19;68.85;;;42.42;;
52744;SDS011;38637;49.984;20.426;2024-03-22T05:22:46;75.93;;;48.55;;
52744;SDS011;38637;49.984;20.426;2024-03-22T05:25:12;66.80;;;43.88;;
52744;SDS011;38637;49.984;20.426;2024-03-22T05:27:39;46.53;;;37.22;;
52744;SDS011;38637;49.984;20.426;2024-03-22T05:30:05;50.13;;;36.33;;
52744;SDS011;38637;49.984;20.426;2024-03-22T05:32:31;46.63;;;35.63;;
52744;SDS011;38637;49.984;20.426;2024-03-22T05:34:56;48.97;;;34.67;;
52744;SDS011;38637;49.984;20.426;2024-03-22T05:37:22;44.43;;;34.73;;
52744;SDS011;38637;49.984;20.426;2024-03-22T05:39:47;49.03;;;36.23;;
52744;SDS011;38637;49.984;20.426;2024-03-22T05:42:12;46.63;;;34.93;;
52744;SDS011;38637;49.984;20.426;2024-03-22T05:44:38;51.43;;;35.90;;
52744;SDS011;38637;49.984;20.426;2024-03-22T05:47:03;48.13;;;34.93;;
52744;SDS011;38637;49.984;20.426;2024-03-22T05:49:28;44.67;;;34.40;;
52744;SDS011;38637;49.984;20.426;2024-03-22T05:51:54;50.13;;;35.50;;
52744;SDS011;38637;49.984;20.426;2024-03-22T05:56:46;48.38;;;34.70;;
52744;SDS011;38637;49.984;20.426;2024-03-22T05:59:11;44.13;;;32.20;;
52744;SDS011;38637;49.984;20.426;2024-03-22T06:01:37;49.77;;;35.93;;
52744;SDS011;38637;49.984;20.426;2024-03-22T06:04:03;45.20;;;36.15;;
52744;SDS011;38637;49.984;20.426;2024-03-22T06:06:30;47.67;;;36.05;;
52744;SDS011;38637;49.984;20.426;2024-03-22T06:08:55;63.43;;;34.27;;
52744;SDS011;38637;49.984;20.426;2024-03-22T06:11:22;50.60;;;34.30;;
52744;SDS011;38637;49.984;20.426;2024-03-22T06:13:47;46.10;;;34.30;;
52744;SDS011;38637;49.984;20.426;2024-03-22T06:16:13;46.17;;;34.37;;
52744;SDS011;38637;49.984;20.426;2024-03-22T06:18:39;48.40;;;36.20;;
52744;SDS011;38637;49.984;20.426;2024-03-22T06:21:05;41.80;;;34.55;;
52744;SDS011;38637;49.984;20.426;2024-03-22T06:23:31;45.60;;;31.50;;
52744;SDS011;38637;49.984;20.426;2024-03-22T06:25:56;41.47;;;33.23;;
52744;SDS011;38637;49.984;20.426;2024-03-22T06:28:22;44.93;;;31.77;;
52744;SDS011;38637;49.984;20.426;2024-03-22T06:30:48;47.03;;;31.95;;
52744;SDS011;38637;49.984;20.426;2024-03-22T06:33:14;43.10;;;32.67;;
52744;SDS011;38637;49.984;20.426;2024-03-22T06:35:40;43.10;;;32.40;;
52744;SDS011;38637;49.984;20.426;2024-03-22T06:38:06;42.20;;;33.78;;
52744;SDS011;38637;49.984;20.426;2024-03-22T06:40:32;50.00;;;34.07;;
52744;SDS011;38637;49.984;20.426;2024-03-22T06:42:57;42.85;;;32.70;;
52744;SDS011;38637;49.984;20.426;2024-03-22T06:45:23;40.83;;;31.53;;
52744;SDS011;38637;49.984;20.426;2024-03-22T06:47:48;52.00;;;31.30;;
52744;SDS011;38637;49.984;20.426;2024-03-22T06:50:14;39.33;;;34.00;;
52744;SDS011;38637;49.984;20.426;2024-03-22T06:52:39;41.23;;;32.17;;
52744;SDS011;38637;49.984;20.426;2024-03-22T06:55:05;40.07;;;31.77;;
52744;SDS011;38637;49.984;20.426;2024-03-22T06:57:31;37.03;;;32.90;;
52744;SDS011;38637;49.984;20.426;2024-03-22T06:59:58;41.42;;;30.08;;
52744;SDS011;38637;49.984;20.426;2024-03-22T07:02:24;40.67;;;30.03;;
52744;SDS011;38637;49.984;20.426;2024-03-22T07:04:49;44.27;;;33.90;;
52744;SDS011;38637;49.984;20.426;2024-03-22T07:07:14;39.37;;;30.53;;
52744;SDS011;38637;49.984;20.426;2024-03-22T07:09:40;38.73;;;32.60;;
52744;SDS011;38637;49.984;20.426;2024-03-22T07:12:05;39.77;;;30.17;;
52744;SDS011;38637;49.984;20.426;2024-03-22T07:14:30;42.87;;;32.70;;
52744;SDS011;38637;49.984;20.426;2024-03-22T07:16:56;41.73;;;29.83;;
52744;SDS011;38637;49.984;20.426;2024-03-22T07:19:21;37.90;;;29.57;;
52744;SDS011;38637;49.984;20.426;2024-03-22T07:21:47;37.80;;;30.03;;
52744;SDS011;38637;49.984;20.426;2024-03-22T07:24:13;35.28;;;29.15;;
52744;SDS011;38637;49.984;20.426;2024-03-22T07:26:38;38.77;;;30.37;;
52744;SDS011;38637;49.984;20.426;2024-03-22T07:29:04;37.47;;;31.27;;
52744;SDS011;38637;49.984;20.426;2024-03-22T07:31:29;44.63;;;33.53;;
52744;SDS011;38637;49.984;20.426;2024-03-22T07:33:55;40.53;;;29.73;;
52744;SDS011;38637;49.984;20.426;2024-03-22T07:36:20;36.07;;;28.90;;
52744;SDS011;38637;49.984;20.426;2024-03-22T07:38:46;38.80;;;30.60;;
52744;SDS011;38637;49.984;20.426;2024-03-22T07:41:11;35.20;;;31.60;;
52744;SDS011;38637;49.984;20.426;2024-03-22T07:43:37;38.77;;;27.50;;
52744;SDS011;38637;49.984;20.426;2024-03-22T07:46:02;38.67;;;31.87;;
52744;SDS011;38637;49.984;20.426;2024-03-22T07:48:28;37.50;;;33.63;;
52744;SDS011;38637;49.984;20.426;2024-03-22T07:51:00;33.97;;;29.00;;
52744;SDS011;38637;49.984;20.426;2024-03-22T07:53:26;38.20;;;32.20;;
52744;SDS011;38637;49.984;20.426;2024-03-22T07:55:51;43.90;;;34.70;;
52744;SDS011;38637;49.984;20.426;2024-03-22T07:58:17;44.93;;;29.80;;
52744;SDS011;38637;49.984;20.426;2024-03-22T08:00:42;41.27;;;31.57;;
52744;SDS011;38637;49.984;20.426;2024-03-22T08:03:08;35.47;;;30.13;;
52744;SDS011;38637;49.984;20.426;2024-03-22T08:05:39;33.33;;;29.38;;
52744;SDS011;38637;49.984;20.426;2024-03-22T08:08:05;34.50;;;31.00;;
52744;SDS011;38637;49.984;20.426;2024-03-22T08:10:30;35.27;;;31.50;;
52744;SDS011;38637;49.984;20.426;2024-03-22T08:12:55;35.50;;;28.37;;
52744;SDS011;38637;49.984;20.426;2024-03-22T08:15:21;37.80;;;28.87;;
52744;SDS011;38637;49.984;20.426;2024-03-22T08:17:46;41.50;;;31.23;;
52744;SDS011;38637;49.984;20.426;2024-03-22T08:20:12;36.93;;;28.83;;
52744;SDS011;38637;49.984;20.426;2024-03-22T08:22:37;34.53;;;30.27;;
52744;SDS011;38637;49.984;20.426;2024-03-22T08:25:03;33.90;;;28.30;;
52744;SDS011;38637;49.984;20.426;2024-03-22T08:27:29;40.50;;;28.23;;
52744;SDS011;38637;49.984;20.426;2024-03-22T08:29:54;34.60;;;27.43;;
52744;SDS011;38637;49.984;20.426;2024-03-22T08:32:20;39.37;;;30.33;;
52744;SDS011;38637;49.984;20.426;2024-03-22T08:34:45;38.73;;;31.10;;
52744;SDS011;38637;49.984;20.426;2024-03-22T08:37:11;40.50;;;33.35;;
52744;SDS011;38637;49.984;20.426;2024-03-22T08:39:36;45.93;;;30.73;;
52744;SDS011;38637;49.984;20.426;2024-03-22T08:42:02;42.50;;;31.33;;
52744;SDS011;38637;49.984;20.426;2024-03-22T08:44:30;39.17;;;30.67;;
52744;SDS011;38637;49.984;20.426;2024-03-22T08:46:55;41.03;;;30.77;;
52744;SDS011;38637;49.984;20.426;2024-03-22T08:49:20;38.33;;;31.53;;
52744;SDS011;38637;49.984;20.426;2024-03-22T08:51:46;46.73;;;32.03;;
52744;SDS011;38637;49.984;20.426;2024-03-22T08:54:13;46.45;;;33.70;;
52744;SDS011;38637;49.984;20.426;2024-03-22T08:56:38;39.37;;;32.37;;
52744;SDS011;38637;49.984;20.426;2024-03-22T08:59:04;37.37;;;30.97;;
52744;SDS011;38637;49.984;20.426;2024-03-22T09:01:29;39.23;;;28.67;;
52744;SDS011;38637;49.984;20.426;2024-03-22T09:03:54;38.70;;;32.87;;
52744;SDS011;38637;49.984;20.426;2024-03-22T09:06:19;38.00;;;30.93;;
52744;SDS011;38637;49.984;20.426;2024-03-22T09:08:45;38.43;;;31.03;;
52744;SDS011;38637;49.984;20.426;2024-03-22T09:11:10;38.63;;;30.73;;
52744;SDS011;38637;49.984;20.426;2024-03-22T09:13:36;41.25;;;32.67;;
52744;SDS011;38637;49.984;20.426;2024-03-22T09:16:01;42.10;;;37.67;;
52744;SDS011;38637;49.984;20.426;2024-03-22T09:18:27;42.90;;;33.27;;
52744;SDS011;38637;49.984;20.426;2024-03-22T09:20:53;35.27;;;29.73;;
52744;SDS011;38637;49.984;20.426;2024-03-22T09:23:19;33.47;;;29.43;;
52744;SDS011;38637;49.984;20.426;2024-03-22T09:25:45;37.22;;;30.52;;
52744;SDS011;38637;49.984;20.426;2024-03-22T09:28:14;39.05;;;31.67;;
52744;SDS011;38637;49.984;20.426;2024-03-22T09:30:40;38.87;;;34.10;;
52744;SDS011;38637;49.984;20.426;2024-03-22T09:33:05;34.22;;;30.52;;
52744;SDS011;38637;49.984;20.426;2024-03-22T09:35:33;38.60;;;34.63;;
52744;SDS011;38637;49.984;20.426;2024-03-22T09:37:59;42.03;;;33.13;;
52744;SDS011;38637;49.984;20.426;2024-03-22T09:40:24;37.73;;;30.00;;
52744;SDS011;38637;49.984;20.426;2024-03-22T09:42:50;36.03;;;32.33;;
52744;SDS011;38637;49.984;20.426;2024-03-22T09:45:18;38.60;;;32.80;;
52744;SDS011;38637;49.984;20.426;2024-03-22T09:47:45;35.97;;;31.98;;
52744;SDS011;38637;49.984;20.426;2024-03-22T09:50:12;38.65;;;31.00;;
52744;SDS011;38637;49.984;20.426;2024-03-22T09:52:39;37.85;;;33.78;;
52744;SDS011;38637;49.984;20.426;2024-03-22T09:55:07;34.60;;;30.10;;
52744;SDS011;38637;49.984;20.426;2024-03-22T09:57:34;34.97;;;31.45;;
52744;SDS011;38637;49.984;20.426;2024-03-22T10:00:03;41.00;;;31.25;;
52744;SDS011;38637;49.984;20.426;2024-03-22T10:02:32;42.25;;;32.53;;
52744;SDS011;38637;49.984;20.426;2024-03-22T10:04:58;34.53;;;30.83;;
52744;SDS011;38637;49.984;20.426;2024-03-22T10:07:23;48.97;;;30.97;;
52744;SDS011;38637;49.984;20.426;2024-03-22T10:09:51;34.37;;;27.60;;
52744;SDS011;38637;49.984;20.426;2024-03-22T10:12:17;28.58;;;25.13;;
52744;SDS011;38637;49.984;20.426;2024-03-22T10:14:43;28.43;;;25.33;;
52744;SDS011;38637;49.984;20.426;2024-03-22T10:17:09;25.35;;;22.23;;
52744;SDS011;38637;49.984;20.426;2024-03-22T10:19:34;26.10;;;21.27;;
52744;SDS011;38637;49.984;20.426;2024-03-22T10:22:00;23.20;;;19.97;;
52744;SDS011;38637;49.984;20.426;2024-03-22T10:24:29;20.80;;;18.67;;
52744;SDS011;38637;49.984;20.426;2024-03-22T10:26:55;22.02;;;19.50;;
52744;SDS011;38637;49.984;20.426;2024-03-22T10:29:21;23.10;;;19.00;;
52744;SDS011;38637;49.984;20.426;2024-03-22T10:31:53;21.33;;;19.10;;
52744;SDS011;38637;49.984;20.426;2024-03-22T10:34:24;29.30;;;18.33;;
52744;SDS011;38637;49.984;20.426;2024-03-22T10:36:49;25.95;;;18.55;;
52744;SDS011;38637;49.984;20.426;2024-03-22T10:39:16;25.67;;;17.90;;
52744;SDS011;38637;49.984;20.426;2024-03-22T10:41:46;22.52;;;17.17;;
52744;SDS011;38637;49.984;20.426;2024-03-22T10:44:13;23.92;;;17.88;;
52744;SDS011;38637;49.984;20.426;2024-03-22T10:46:45;21.55;;;18.52;;
52744;SDS011;38637;49.984;20.426;2024-03-22T10:49:19;17.52;;;15.48;;
52744;SDS011;38637;49.984;20.426;2024-03-22T10:51:51;22.50;;;16.50;;
52744;SDS011;38637;49.984;20.426;2024-03-22T10:54:20;21.77;;;16.10;;
52744;SDS011;38637;49.984;20.426;2024-03-22T10:56:48;20.42;;;17.80;;
52744;SDS011;38637;49.984;20.426;2024-03-22T10:59:18;22.70;;;17.10;;
52744;SDS011;38637;49.984;20.426;2024-03-22T11:01:45;21.75;;;18.42;;
52744;SDS011;38637;49.984;20.426;2024-03-22T11:06:36;19.02;;;15.40;;
52744;SDS011;38637;49.984;20.426;2024-03-22T11:09:02;19.03;;;17.03;;
52744;SDS011;38637;49.984;20.426;2024-03-22T11:11:31;20.13;;;15.85;;
52744;SDS011;38637;49.984;20.426;2024-03-22T11:14:02;27.50;;;16.00;;
52744;SDS011;38637;49.984;20.426;2024-03-22T11:16:27;17.20;;;14.75;;
52744;SDS011;38637;49.984;20.426;2024-03-22T11:18:53;21.40;;;16.27;;
52744;SDS011;38637;49.984;20.426;2024-03-22T11:21:18;18.53;;;14.57;;
52744;SDS011;38637;49.984;20.426;2024-03-22T11:23:47;15.77;;;13.77;;
52744;SDS011;38637;49.984;20.426;2024-03-22T11:26:12;17.05;;;14.60;;
52744;SDS011;38637;49.984;20.426;2024-03-22T11:28:38;23.47;;;16.47;;
52744;SDS011;38637;49.984;20.426;2024-03-22T11:31:04;21.63;;;15.77;;
52744;SDS011;38637;49.984;20.426;2024-03-22T11:33:30;23.13;;;16.33;;
52744;SDS011;38637;49.984;20.426;2024-03-22T11:35:57;24.02;;;17.80;;
52744;SDS011;38637;49.984;20.426;2024-03-22T11:38:24;23.60;;;17.73;;
52744;SDS011;38637;49.984;20.426;2024-03-22T11:40:52;23.38;;;17.45;;
52744;SDS011;38637;49.984;20.426;2024-03-22T11:43:19;23.25;;;16.88;;
52744;SDS011;38637;49.984;20.426;2024-03-22T11:45:45;20.63;;;17.30;;
52744;SDS011;38637;49.984;20.426;2024-03-22T11:48:10;22.87;;;17.00;;
52744;SDS011;38637;49.984;20.426;2024-03-22T11:50:37;26.10;;;17.97;;
52744;SDS011;38637;49.984;20.426;2024-03-22T11:53:04;22.13;;;16.67;;
52744;SDS011;38637;49.984;20.426;2024-03-22T11:55:30;24.65;;;17.00;;
52744;SDS011;38637;49.984;20.426;2024-03-22T11:57:57;32.60;;;17.70;;
52744;SDS011;38637;49.984;20.426;2024-03-22T12:00:23;35.67;;;16.95;;
52744;SDS011;38637;49.984;20.426;2024-03-22T12:02:50;18.17;;;15.55;;
52744;SDS011;38637;49.984;20.426;2024-03-22T12:05:15;21.77;;;16.33;;
52744;SDS011;38637;49.984;20.426;2024-03-22T12:07:42;18.48;;;16.38;;
52744;SDS011;38637;49.984;20.426;2024-03-22T12:10:09;23.80;;;16.90;;
52744;SDS011;38637;49.984;20.426;2024-03-22T12:12:34;22.60;;;17.40;;
52744;SDS011;38637;49.984;20.426;2024-03-22T12:14:59;17.33;;;15.43;;
52744;SDS011;38637;49.984;20.426;2024-03-22T12:17:25;20.80;;;16.80;;
52744;SDS011;38637;49.984;20.426;2024-03-22T12:19:50;20.80;;;16.17;;
52744;SDS011;38637;49.984;20.426;2024-03-22T12:22:15;18.27;;;16.00;;
52744;SDS011;38637;49.984;20.426;2024-03-22T12:24:42;17.65;;;15.98;;
52744;SDS011;38637;49.984;20.426;2024-03-22T12:27:07;24.20;;;17.70;;
52744;SDS011;38637;49.984;20.426;2024-03-22T12:29:32;24.03;;;17.20;;
52744;SDS011;38637;49.984;20.426;2024-03-22T12:31:58;21.00;;;15.73;;
52744;SDS011;38637;49.984;20.426;2024-03-22T12:34:26;20.40;;;17.67;;
52744;SDS011;38637;49.984;20.426;2024-03-22T12:36:52;18.63;;;16.73;;
52744;SDS011;38637;49.984;20.426;2024-03-22T12:39:18;25.57;;;17.67;;
52744;SDS011;38637;49.984;20.426;2024-03-22T12:41:43;19.23;;;16.13;;
52744;SDS011;38637;49.984;20.426;2024-03-22T12:44:08;19.43;;;17.50;;
52744;SDS011;38637;49.984;20.426;2024-03-22T12:46:34;18.83;;;16.67;;
52744;SDS011;38637;49.984;20.426;2024-03-22T12:48:59;24.60;;;17.97;;
52744;SDS011;38637;49.984;20.426;2024-03-22T12:51:24;22.83;;;17.80;;
52744;SDS011;38637;49.984;20.426;2024-03-22T12:53:50;24.95;;;18.15;;
52744;SDS011;38637;49.984;20.426;2024-03-22T12:56:16;21.13;;;17.50;;
52744;SDS011;38637;49.984;20.426;2024-03-22T12:58:41;20.23;;;17.37;;
52744;SDS011;38637;49.984;20.426;2024-03-22T13:01:06;20.67;;;18.73;;
52744;SDS011;38637;49.984;20.426;2024-03-22T13:03:33;24.15;;;18.50;;
52744;SDS011;38637;49.984;20.426;2024-03-22T13:05:58;20.20;;;17.83;;
52744;SDS011;38637;49.984;20.426;2024-03-22T13:08:24;19.63;;;17.73;;
52744;SDS011;38637;49.984;20.426;2024-03-22T13:10:49;19.77;;;17.87;;
52744;SDS011;38637;49.984;20.426;2024-03-22T13:13:14;23.53;;;18.73;;
52744;SDS011;38637;49.984;20.426;2024-03-22T13:18:07;33.70;;;19.23;;
52744;SDS011;38637;49.984;20.426;2024-03-22T13:20:33;25.33;;;18.63;;
52744;SDS011;38637;49.984;20.426;2024-03-22T13:22:59;21.65;;;18.30;;
52744;SDS011;38637;49.984;20.426;2024-03-22T13:25:26;26.05;;;19.48;;
52744;SDS011;38637;49.984;20.426;2024-03-22T13:27:51;26.50;;;18.13;;
52744;SDS011;38637;49.984;20.426;2024-03-22T13:30:16;21.13;;;17.63;;
52744;SDS011;38637;49.984;20.426;2024-03-22T13:32:42;28.20;;;17.93;;
52744;SDS011;38637;49.984;20.426;2024-03-22T13:35:07;19.43;;;17.33;;
52744;SDS011;38637;49.984;20.426;2024-03-22T13:37:33;19.87;;;17.93;;
52744;SDS011;38637;49.984;20.426;2024-03-22T13:39:58;40.87;;;18.17;;
52744;SDS011;38637;49.984;20.426;2024-03-22T13:42:24;20.10;;;17.87;;
52744;SDS011;38637;49.984;20.426;2024-03-22T13:47:15;24.33;;;17.73;;
52744;SDS011;38637;49.984;20.426;2024-03-22T13:49:42;22.40;;;18.48;;
52744;SDS011;38637;49.984;20.426;2024-03-22T13:52:08;21.53;;;16.50;;
52744;SDS011;38637;49.984;20.426;2024-03-22T13:54:34;20.27;;;17.43;;
52744;SDS011;38637;49.984;20.426;2024-03-22T13:56:59;20.53;;;17.20;;
52744;SDS011;38637;49.984;20.426;2024-03-22T13:59:25;23.53;;;17.10;;
52744;SDS011;38637;49.984;20.426;2024-03-22T14:01:51;19.58;;;17.48;;
52744;SDS011;38637;49.984;20.426;2024-03-22T14:04:17;25.52;;;19.17;;
52744;SDS011;38637;49.984;20.426;2024-03-22T14:06:44;30.02;;;17.92;;
52744;SDS011;38637;49.984;20.426;2024-03-22T14:09:10;42.20;;;19.93;;
52744;SDS011;38637;49.984;20.426;2024-03-22T14:11:37;28.70;;;18.33;;